Time;durP1;ratioP1;P1;durP2;ratioP2;P2;SDS_P1;SDS_P2;PMS_P1;PMS_P2;Temp;Humidity;BMP_temperature;BMP_pressure;BME280_temperature;BME280_humidity;BME280_pressure;Samples;Min_cycle;Max_cycle;Signal;HPM_P1;HPM_P2
2022/06/09 00:01:06;;;;;;;7.90;3.57;;;;;;;;;;5053969;28;20225;-85
2022/06/09 00:03:39;;;;;;;4.40;2.80;;;;;;;;;;5054176;28;20597;-84
2022/06/09 00:06:09;;;;;;;3.43;3.13;;;;;;;;;;5054011;28;20188;-86
2022/06/09 00:08:37;;;;;;;3.40;2.70;;;;;;;;;;5053230;28;20703;-85
2022/06/09 00:11:08;;;;;;;3.27;2.97;;;;;;;;;;5053938;28;20197;-85
2022/06/09 00:13:38;;;;;;;3.10;2.60;;;;;;;;;;5047174;28;20238;-85
2022/06/09 00:16:06;;;;;;;4.60;2.73;;;;;;;;;;5033687;28;20197;-85
2022/06/09 00:18:33;;;;;;;4.73;2.70;;;;;;;;;;5033414;28;20197;-85
2022/06/09 00:21:01;;;;;;;5.50;3.23;;;;;;;;;;5033292;28;20226;-85
2022/06/09 00:23:28;;;;;;;2.97;2.77;;;;;;;;;;5033321;28;20636;-85
2022/06/09 00:25:55;;;;;;;4.27;2.80;;;;;;;;;;5033868;28;20282;-84
2022/06/09 00:28:23;;;;;;;5.57;3.60;;;;;;;;;;5031380;28;20298;-83
2022/06/09 00:30:50;;;;;;;3.50;3.00;;;;;;;;;;5033163;28;20222;-83
2022/06/09 00:33:18;;;;;;;4.27;3.23;;;;;;;;;;5033377;28;20242;-83
2022/06/09 00:35:45;;;;;;;3.90;2.80;;;;;;;;;;5033365;28;20232;-83
2022/06/09 00:38:12;;;;;;;3.00;2.70;;;;;;;;;;5032974;28;20197;-83
2022/06/09 00:40:39;;;;;;;4.00;3.00;;;;;;;;;;5032335;28;20732;-83
2022/06/09 00:43:07;;;;;;;3.10;2.90;;;;;;;;;;5033180;28;20207;-82
2022/06/09 00:45:37;;;;;;;8.53;2.70;;;;;;;;;;5032935;28;20248;-83
2022/06/09 00:48:19;;;;;;;2.70;2.50;;;;;;;;;;5033072;28;20198;-83
2022/06/09 00:50:46;;;;;;;2.90;2.70;;;;;;;;;;5032660;28;20183;-83
2022/06/09 00:53:26;;;;;;;5.90;2.60;;;;;;;;;;5032505;28;20259;-83
2022/06/09 00:55:54;;;;;;;3.07;2.87;;;;;;;;;;5032999;28;20201;-83
2022/06/09 00:58:23;;;;;;;4.00;2.60;;;;;;;;;;5032903;28;20197;-83
2022/06/09 01:00:55;;;;;;;2.70;2.50;;;;;;;;;;5032667;28;20237;-83
2022/06/09 01:03:25;;;;;;;3.33;2.50;;;;;;;;;;5032366;28;20195;-84
2022/06/09 01:05:57;;;;;;;2.63;2.43;;;;;;;;;;5032590;28;20669;-83
2022/06/09 01:08:24;;;;;;;3.63;2.90;;;;;;;;;;5032389;28;20193;-84
2022/06/09 01:10:51;;;;;;;4.23;2.60;;;;;;;;;;5033011;28;20739;-84
2022/06/09 01:13:21;;;;;;;3.33;3.03;;;;;;;;;;5031929;28;20244;-84
2022/06/09 01:15:55;;;;;;;3.77;3.00;;;;;;;;;;5032566;28;20383;-83
2022/06/09 01:18:32;;;;;;;5.10;3.00;;;;;;;;;;5032278;28;20728;-84
2022/06/09 01:21:03;;;;;;;3.47;2.87;;;;;;;;;;5032390;28;20212;-84
2022/06/09 01:24:01;;;;;;;2.73;2.60;;;;;;;;;;5032735;28;20188;-83
2022/06/09 01:26:40;;;;;;;3.87;2.70;;;;;;;;;;5032578;28;20190;-84
2022/06/09 01:29:34;;;;;;;2.50;2.30;;;;;;;;;;5032142;28;20189;-84
2022/06/09 01:32:06;;;;;;;3.67;2.63;;;;;;;;;;5031883;28;20623;-84
2022/06/09 01:34:38;;;;;;;2.50;2.30;;;;;;;;;;5031895;28;20284;-84
2022/06/09 01:37:10;;;;;;;2.93;2.73;;;;;;;;;;5032307;28;20221;-83
2022/06/09 01:39:46;;;;;;;5.37;2.83;;;;;;;;;;5032587;28;20260;-83
2022/06/09 01:42:28;;;;;;;2.90;2.70;;;;;;;;;;5031597;28;20207;-83
2022/06/09 01:44:57;;;;;;;2.70;2.37;;;;;;;;;;5032200;28;20219;-84
2022/06/09 01:47:31;;;;;;;2.80;2.60;;;;;;;;;;5031892;28;20265;-81
2022/06/09 01:49:59;;;;;;;3.20;2.90;;;;;;;;;;5031556;28;20186;-81
2022/06/09 01:52:27;;;;;;;3.07;2.50;;;;;;;;;;5031131;28;20198;-82
2022/06/09 01:54:55;;;;;;;4.20;2.90;;;;;;;;;;5031956;28;20206;-81
2022/06/09 01:57:26;;;;;;;3.30;3.10;;;;;;;;;;5031800;28;20210;-82
2022/06/09 01:59:55;;;;;;;2.97;2.77;;;;;;;;;;5031230;28;20190;-82
2022/06/09 02:02:29;;;;;;;3.60;3.30;;;;;;;;;;5031975;28;20652;-82
2022/06/09 02:04:57;;;;;;;3.37;2.77;;;;;;;;;;5031684;28;20271;-81
2022/06/09 02:07:26;;;;;;;3.00;2.80;;;;;;;;;;5031421;28;20615;-82
2022/06/09 02:09:55;;;;;;;2.70;2.50;;;;;;;;;;5031652;28;20276;-82
2022/06/09 02:12:24;;;;;;;4.57;2.70;;;;;;;;;;5031621;28;20235;-82
2022/06/09 02:14:55;;;;;;;4.33;2.77;;;;;;;;;;5031410;28;20196;-82
2022/06/09 02:17:22;;;;;;;5.63;3.67;;;;;;;;;;5031423;28;20306;-82
2022/06/09 02:19:51;;;;;;;4.40;2.80;;;;;;;;;;5031345;28;20208;-82
2022/06/09 02:22:19;;;;;;;3.37;2.70;;;;;;;;;;5031670;28;20233;-82
2022/06/09 02:24:46;;;;;;;4.10;3.20;;;;;;;;;;5031607;28;20198;-82
2022/06/09 02:27:14;;;;;;;4.07;3.00;;;;;;;;;;5031314;28;20208;-82
2022/06/09 02:29:41;;;;;;;3.50;2.77;;;;;;;;;;5031673;28;20291;-82
2022/06/09 02:32:08;;;;;;;3.63;3.37;;;;;;;;;;5031651;28;20625;-82
2022/06/09 02:34:35;;;;;;;3.57;3.27;;;;;;;;;;5031496;28;20251;-82
2022/06/09 02:37:04;;;;;;;3.47;3.27;;;;;;;;;;5031020;28;20210;-81
2022/06/09 02:39:31;;;;;;;2.80;2.60;;;;;;;;;;5035406;28;20217;-81
2022/06/09 02:41:58;;;;;;;3.50;3.20;;;;;;;;;;5051126;28;20782;-82
2022/06/09 02:44:25;;;;;;;3.53;3.23;;;;;;;;;;5051270;28;20265;-82
2022/06/09 02:46:52;;;;;;;2.70;2.50;;;;;;;;;;5051379;28;20701;-82
2022/06/09 02:49:21;;;;;;;3.73;3.43;;;;;;;;;;5051066;28;20201;-82
2022/06/09 02:51:48;;;;;;;4.07;2.97;;;;;;;;;;5051417;28;20735;-82
2022/06/09 02:54:17;;;;;;;3.73;3.40;;;;;;;;;;5051439;28;20197;-82
2022/06/09 02:56:44;;;;;;;3.43;3.03;;;;;;;;;;5051844;28;20207;-82
2022/06/09 02:59:11;;;;;;;3.50;3.20;;;;;;;;;;5051332;28;20272;-82
2022/06/09 03:01:38;;;;;;;3.20;3.00;;;;;;;;;;5051241;28;20228;-82
2022/06/09 03:04:06;;;;;;;3.00;2.80;;;;;;;;;;5053460;28;20554;-82
2022/06/09 03:06:33;;;;;;;5.97;2.73;;;;;;;;;;5054994;28;20295;-82
2022/06/09 03:09:00;;;;;;;4.43;2.87;;;;;;;;;;5054925;28;20206;-81
2022/06/09 03:11:28;;;;;;;4.67;3.37;;;;;;;;;;5054403;28;20192;-81
2022/06/09 03:13:56;;;;;;;3.13;2.93;;;;;;;;;;5054565;28;20707;-81
2022/06/09 03:16:23;;;;;;;3.50;3.20;;;;;;;;;;5055104;28;20222;-81
2022/06/09 03:18:50;;;;;;;2.97;2.77;;;;;;;;;;5054742;28;20237;-82
2022/06/09 03:21:17;;;;;;;4.10;3.80;;;;;;;;;;5054671;28;20201;-82
2022/06/09 03:23:44;;;;;;;3.23;2.97;;;;;;;;;;5054475;28;20195;-82
2022/06/09 03:26:11;;;;;;;3.70;2.90;;;;;;;;;;5054649;28;20203;-81
2022/06/09 03:28:41;;;;;;;3.30;3.03;;;;;;;;;;5054641;28;20273;-82
2022/06/09 03:31:08;;;;;;;3.43;3.20;;;;;;;;;;5054292;28;20205;-82
2022/06/09 03:33:35;;;;;;;3.20;3.00;;;;;;;;;;5054580;28;20636;-81
2022/06/09 03:36:03;;;;;;;3.67;3.43;;;;;;;;;;5054446;28;20215;-81
2022/06/09 03:38:30;;;;;;;4.07;3.70;;;;;;;;;;5054446;28;20288;-81
2022/06/09 03:40:57;;;;;;;4.93;4.10;;;;;;;;;;5054290;28;20281;-81
2022/06/09 03:43:24;;;;;;;10.00;9.10;;;;;;;;;;5054235;28;20386;-81
2022/06/09 03:45:53;;;;;;;18.63;16.63;;;;;;;;;;5054452;28;20686;-81
2022/06/09 03:48:20;;;;;;;6.73;4.80;;;;;;;;;;5053926;28;20696;-81
2022/06/09 03:50:47;;;;;;;4.33;3.23;;;;;;;;;;5054147;28;20204;-82
2022/06/09 03:53:14;;;;;;;5.23;3.90;;;;;;;;;;5053877;28;20250;-82
2022/06/09 03:55:41;;;;;;;4.50;4.10;;;;;;;;;;5054106;28;20333;-82
2022/06/09 03:58:08;;;;;;;4.10;3.80;;;;;;;;;;5054012;28;20202;-82
2022/06/09 04:00:35;;;;;;;4.43;3.80;;;;;;;;;;5053854;28;20201;-82
2022/06/09 04:03:04;;;;;;;3.73;3.43;;;;;;;;;;5051210;28;20262;-82
2022/06/09 04:05:32;;;;;;;4.47;3.87;;;;;;;;;;5053963;28;20195;-84
2022/06/09 04:08:00;;;;;;;4.73;3.57;;;;;;;;;;5053848;28;20199;-84
2022/06/09 04:10:31;;;;;;;4.00;3.70;;;;;;;;;;5053624;28;20204;-84
2022/06/09 04:12:58;;;;;;;4.13;3.67;;;;;;;;;;5053429;28;20323;-84
2022/06/09 04:15:25;;;;;;;4.37;3.97;;;;;;;;;;5052836;28;20441;-84
2022/06/09 04:17:52;;;;;;;4.37;4.07;;;;;;;;;;5053702;28;20209;-84
2022/06/09 04:20:23;;;;;;;3.93;3.63;;;;;;;;;;5053570;28;20198;-84
2022/06/09 04:22:50;;;;;;;4.03;3.70;;;;;;;;;;5053476;28;20640;-83
2022/06/09 04:25:18;;;;;;;7.60;5.27;;;;;;;;;;5053837;28;20215;-89
2022/06/09 04:27:45;;;;;;;4.90;4.50;;;;;;;;;;5032764;28;20199;-84
2022/06/09 04:30:14;;;;;;;4.53;4.23;;;;;;;;;;5033322;28;20232;-84
2022/06/09 04:32:41;;;;;;;6.93;5.03;;;;;;;;;;5033977;28;20206;-85
2022/06/09 04:35:09;;;;;;;5.87;4.77;;;;;;;;;;5033598;28;20202;-85
2022/06/09 04:40:22;;;;;;;4.80;4.30;;;;;;;;;;5033065;28;20561;-85
2022/06/09 04:42:49;;;;;;;5.93;5.43;;;;;;;;;;5033232;28;20287;-84
2022/06/09 04:45:16;;;;;;;6.17;5.67;;;;;;;;;;5033324;28;20203;-85
2022/06/09 04:47:44;;;;;;;6.20;5.63;;;;;;;;;;5033136;28;20632;-85
2022/06/09 04:50:12;;;;;;;6.60;6.20;;;;;;;;;;5032702;28;20202;-84
2022/06/09 04:52:40;;;;;;;6.40;5.80;;;;;;;;;;5032241;28;20200;-86
2022/06/09 04:55:08;;;;;;;7.00;6.40;;;;;;;;;;5033289;28;20253;-86
2022/06/09 04:57:35;;;;;;;7.83;7.20;;;;;;;;;;5033308;28;20629;-85
2022/06/09 05:00:04;;;;;;;6.67;6.07;;;;;;;;;;5033225;28;20204;-85
2022/06/09 05:02:31;;;;;;;5.60;5.10;;;;;;;;;;5032986;28;20225;-86
2022/06/09 05:04:58;;;;;;;5.60;5.20;;;;;;;;;;5032937;28;20202;-85
2022/06/09 05:07:25;;;;;;;5.70;5.20;;;;;;;;;;5032905;28;20203;-86
2022/06/09 05:09:54;;;;;;;5.50;5.10;;;;;;;;;;5032591;28;20213;-85
2022/06/09 05:12:21;;;;;;;5.20;4.87;;;;;;;;;;5032903;28;20296;-85
2022/06/09 05:14:48;;;;;;;6.37;5.87;;;;;;;;;;5032374;28;20205;-85
2022/06/09 05:17:15;;;;;;;7.40;6.80;;;;;;;;;;5033062;28;20622;-85
2022/06/09 05:19:42;;;;;;;6.60;6.10;;;;;;;;;;5032671;28;20194;-86
2022/06/09 05:22:09;;;;;;;5.80;5.30;;;;;;;;;;5032957;28;20227;-85
2022/06/09 05:24:36;;;;;;;5.37;4.97;;;;;;;;;;5032343;28;20195;-86
2022/06/09 05:27:06;;;;;;;4.97;4.67;;;;;;;;;;5032536;28;20260;-86
2022/06/09 05:29:33;;;;;;;5.03;4.70;;;;;;;;;;5032515;28;20191;-86
2022/06/09 05:32:01;;;;;;;5.30;4.40;;;;;;;;;;5032465;28;20201;-86
2022/06/09 05:34:30;;;;;;;5.10;4.77;;;;;;;;;;5032096;28;20202;-85
2022/06/09 05:36:58;;;;;;;5.93;5.23;;;;;;;;;;5032423;28;20662;-86
2022/06/09 05:45:09;;;;;;;5.60;5.10;;;;;;;;;;5031253;28;20281;-86
2022/06/09 05:47:36;;;;;;;5.70;5.20;;;;;;;;;;5032632;28;20198;-86
2022/06/09 05:50:03;;;;;;;5.87;5.37;;;;;;;;;;5032502;28;20199;-86
2022/06/09 05:52:31;;;;;;;4.40;4.00;;;;;;;;;;5032032;28;20252;-86
2022/06/09 05:54:58;;;;;;;5.07;4.60;;;;;;;;;;5032077;28;20209;-86
2022/06/09 05:57:27;;;;;;;5.20;4.67;;;;;;;;;;5032297;28;20665;-86
2022/06/09 05:59:55;;;;;;;5.20;4.70;;;;;;;;;;5032234;28;20194;-86
2022/06/09 06:02:25;;;;;;;4.97;4.60;;;;;;;;;;5032065;28;20222;-87
2022/06/09 06:04:53;;;;;;;5.70;5.20;;;;;;;;;;5032293;28;20612;-87
2022/06/09 06:07:19;;;;;;;5.10;4.70;;;;;;;;;;5032392;28;20273;-86
2022/06/09 06:09:46;;;;;;;4.93;4.63;;;;;;;;;;5031993;28;20657;-86
2022/06/09 06:12:13;;;;;;;5.30;4.60;;;;;;;;;;5032157;28;20234;-87
2022/06/09 06:14:42;;;;;;;4.80;4.50;;;;;;;;;;5032403;28;20206;-86
2022/06/09 06:17:09;;;;;;;5.53;5.03;;;;;;;;;;5032300;28;20195;-87
2022/06/09 06:19:36;;;;;;;5.17;4.87;;;;;;;;;;5031917;28;20194;-87
2022/06/09 06:22:03;;;;;;;5.27;4.87;;;;;;;;;;5032216;28;20247;-87
2022/06/09 06:24:31;;;;;;;6.20;5.60;;;;;;;;;;5032139;28;20195;-87
2022/06/09 06:26:58;;;;;;;5.57;5.17;;;;;;;;;;5032483;28;20256;-87
2022/06/09 06:29:27;;;;;;;6.00;5.47;;;;;;;;;;5032271;28;20202;-85
2022/06/09 06:31:55;;;;;;;6.07;5.67;;;;;;;;;;5032161;28;20202;-87
2022/06/09 06:34:23;;;;;;;5.27;4.87;;;;;;;;;;5031804;28;20191;-87
2022/06/09 06:36:50;;;;;;;6.03;5.50;;;;;;;;;;5031893;28;20257;-87
2022/06/09 06:39:17;;;;;;;5.70;5.20;;;;;;;;;;5034628;28;20671;-86
2022/06/09 06:41:44;;;;;;;6.23;5.73;;;;;;;;;;5036183;28;20226;-87
2022/06/09 06:44:12;;;;;;;6.13;4.90;;;;;;;;;;5035980;28;20222;-87
2022/06/09 06:46:39;;;;;;;5.50;5.10;;;;;;;;;;5036177;28;20285;-87
2022/06/09 06:49:08;;;;;;;5.20;4.80;;;;;;;;;;5035773;28;20195;-87
2022/06/09 06:51:36;;;;;;;6.20;5.53;;;;;;;;;;5036054;28;20237;-88
2022/06/09 06:54:05;;;;;;;5.60;5.07;;;;;;;;;;5036045;28;20203;-87
2022/06/09 06:56:33;;;;;;;6.53;4.40;;;;;;;;;;5036240;28;20209;-88
2022/06/09 06:59:01;;;;;;;4.97;4.57;;;;;;;;;;5035828;28;20253;-88
2022/06/09 07:01:29;;;;;;;5.13;4.73;;;;;;;;;;5035832;28;20201;-87
2022/06/09 07:03:56;;;;;;;7.63;6.93;;;;;;;;;;5035921;28;20249;-87
2022/06/09 07:06:25;;;;;;;8.43;7.70;;;;;;;;;;5035967;28;20221;-86
2022/06/09 07:08:52;;;;;;;9.10;7.33;;;;;;;;;;5035480;28;20248;-86
2022/06/09 07:11:20;;;;;;;9.63;8.03;;;;;;;;;;5035579;28;20199;-86
2022/06/09 07:13:47;;;;;;;10.23;7.90;;;;;;;;;;5035892;28;20638;-88
2022/06/09 07:16:14;;;;;;;8.03;7.33;;;;;;;;;;5035594;28;20253;-87
2022/06/09 07:18:42;;;;;;;11.23;9.87;;;;;;;;;;5035592;28;20198;-86
2022/06/09 07:21:10;;;;;;;7.40;6.73;;;;;;;;;;5035603;28;20205;-89
2022/06/09 07:23:39;;;;;;;8.40;7.60;;;;;;;;;;5035725;28;20230;-87
2022/06/09 07:26:06;;;;;;;7.47;6.53;;;;;;;;;;5035596;28;20227;-88
2022/06/09 07:28:34;;;;;;;7.87;7.17;;;;;;;;;;5035261;28;20206;-87
2022/06/09 07:31:02;;;;;;;8.97;7.57;;;;;;;;;;5035390;28;20678;-88
2022/06/09 07:33:33;;;;;;;7.80;7.10;;;;;;;;;;5035453;28;20198;-87
2022/06/09 07:36:01;;;;;;;8.77;6.47;;;;;;;;;;5035067;28;20183;-87
2022/06/09 07:38:30;;;;;;;9.13;6.57;;;;;;;;;;5035207;28;20194;-88
2022/06/09 07:40:58;;;;;;;7.67;6.83;;;;;;;;;;5035489;28;20203;-88
2022/06/09 07:43:26;;;;;;;6.03;5.53;;;;;;;;;;5035016;28;20230;-88
2022/06/09 07:45:53;;;;;;;11.63;6.67;;;;;;;;;;5035184;28;20205;-88
2022/06/09 07:48:21;;;;;;;7.53;6.83;;;;;;;;;;5035580;28;20194;-87
2022/06/09 07:50:49;;;;;;;7.17;6.30;;;;;;;;;;5033937;28;20195;-88
2022/06/09 07:53:17;;;;;;;7.80;6.60;;;;;;;;;;5034599;28;20259;-88
2022/06/09 07:55:44;;;;;;;6.80;6.30;;;;;;;;;;5034825;28;20206;-88
2022/06/09 07:58:13;;;;;;;8.03;5.97;;;;;;;;;;5034853;28;20210;-86
2022/06/09 08:00:40;;;;;;;5.83;5.23;;;;;;;;;;5035105;28;20210;-88
2022/06/09 08:03:08;;;;;;;6.27;5.70;;;;;;;;;;5034836;28;20604;-87
2022/06/09 08:05:36;;;;;;;7.47;6.27;;;;;;;;;;5035034;28;20203;-88
2022/06/09 08:08:05;;;;;;;6.20;5.70;;;;;;;;;;5034864;28;20202;-90
2022/06/09 08:10:32;;;;;;;7.20;5.70;;;;;;;;;;5035321;28;20667;-86
2022/06/09 08:13:02;;;;;;;7.90;6.40;;;;;;;;;;5034545;28;20235;-87
2022/06/09 08:15:32;;;;;;;7.00;6.17;;;;;;;;;;5034502;28;20210;-88
2022/06/09 08:18:00;;;;;;;9.90;6.60;;;;;;;;;;5034715;28;20199;-87
2022/06/09 08:20:30;;;;;;;7.27;6.53;;;;;;;;;;5034214;28;20293;-87
2022/06/09 08:23:02;;;;;;;8.27;6.07;;;;;;;;;;5034448;28;20628;-88
2022/06/09 08:25:29;;;;;;;8.07;6.63;;;;;;;;;;5034333;28;20722;-88
2022/06/09 08:27:57;;;;;;;6.20;5.70;;;;;;;;;;5034302;28;20199;-88
2022/06/09 08:30:24;;;;;;;6.40;5.80;;;;;;;;;;5034366;28;20199;-88
2022/06/09 08:32:53;;;;;;;7.17;6.57;;;;;;;;;;5034346;28;20668;-87
2022/06/09 08:35:21;;;;;;;6.47;5.00;;;;;;;;;;5034704;28;20603;-88
2022/06/09 08:37:51;;;;;;;6.73;5.17;;;;;;;;;;5034030;28;20257;-87
2022/06/09 08:40:21;;;;;;;5.40;4.93;;;;;;;;;;5033833;28;20272;-87
2022/06/09 08:43:00;;;;;;;6.53;5.23;;;;;;;;;;5033723;28;20194;-87
2022/06/09 08:45:31;;;;;;;5.67;5.27;;;;;;;;;;5034125;28;20193;-88
2022/06/09 08:48:00;;;;;;;8.47;5.37;;;;;;;;;;5033576;28;20245;-88
2022/06/09 08:50:30;;;;;;;7.30;5.13;;;;;;;;;;5034374;28;20592;-88
2022/06/09 08:53:01;;;;;;;6.10;5.60;;;;;;;;;;5033994;28;20195;-87
2022/06/09 08:55:34;;;;;;;5.63;5.20;;;;;;;;;;5033627;28;20249;-88
2022/06/09 08:58:05;;;;;;;6.63;5.97;;;;;;;;;;5033640;28;20226;-88
2022/06/09 09:00:41;;;;;;;6.87;5.87;;;;;;;;;;5033472;28;20186;-87
2022/06/09 09:03:17;;;;;;;5.63;4.87;;;;;;;;;;5033320;28;20186;-88
2022/06/09 09:05:48;;;;;;;5.77;5.37;;;;;;;;;;5034186;28;20269;-89
2022/06/09 09:08:16;;;;;;;5.83;5.33;;;;;;;;;;5033785;28;20286;-88
2022/06/09 09:10:52;;;;;;;7.33;5.70;;;;;;;;;;5033914;28;20202;-88
2022/06/09 09:13:33;;;;;;;7.33;6.23;;;;;;;;;;5033317;28;20226;-87
2022/06/09 09:16:20;;;;;;;6.70;5.80;;;;;;;;;;5033385;28;20187;-88
2022/06/09 09:18:54;;;;;;;6.33;5.30;;;;;;;;;;5033138;28;20190;-88
2022/06/09 09:21:31;;;;;;;6.80;5.40;;;;;;;;;;5033237;28;20226;-87
2022/06/09 09:24:08;;;;;;;5.97;5.03;;;;;;;;;;5033254;28;20280;-88
2022/06/09 09:26:48;;;;;;;6.00;5.50;;;;;;;;;;5033393;28;20612;-88
2022/06/09 09:29:22;;;;;;;5.23;4.77;;;;;;;;;;5033813;28;20252;-87
2022/06/09 09:31:51;;;;;;;6.73;5.23;;;;;;;;;;5033909;28;20608;-87
2022/06/09 09:34:23;;;;;;;6.33;4.60;;;;;;;;;;5032788;28;20202;-87
2022/06/09 09:36:54;;;;;;;6.27;5.67;;;;;;;;;;5033226;28;20279;-87
2022/06/09 09:39:24;;;;;;;6.80;5.40;;;;;;;;;;5033650;28;20586;-88
2022/06/09 09:41:58;;;;;;;8.03;5.10;;;;;;;;;;5034032;28;20229;-87
2022/06/09 09:44:27;;;;;;;5.53;5.03;;;;;;;;;;5032475;28;20211;-88
2022/06/09 09:46:56;;;;;;;6.53;5.80;;;;;;;;;;5033235;28;20199;-87
2022/06/09 09:49:29;;;;;;;5.43;5.03;;;;;;;;;;5032811;28;20590;-87
2022/06/09 09:51:57;;;;;;;6.27;5.67;;;;;;;;;;5032523;28;20191;-87
2022/06/09 09:54:28;;;;;;;7.40;6.70;;;;;;;;;;5032497;28;20737;-88
2022/06/09 09:57:07;;;;;;;10.13;6.47;;;;;;;;;;5033243;28;20186;-88
2022/06/09 09:59:44;;;;;;;7.83;6.73;;;;;;;;;;5032437;28;20256;-88
2022/06/09 10:08:39;;;;;;;5.73;5.23;;;;;;;;;;5032714;28;20186;-87
2022/06/09 10:14:02;;;;;;;5.53;5.13;;;;;;;;;;5031738;28;20174;-88
2022/06/09 10:16:32;;;;;;;5.63;5.23;;;;;;;;;;5032660;28;20607;-88
2022/06/09 10:19:03;;;;;;;5.87;5.43;;;;;;;;;;5032473;28;20186;-88
2022/06/09 10:21:49;;;;;;;6.47;5.87;;;;;;;;;;5032489;28;20186;-88
2022/06/09 10:24:18;;;;;;;7.13;6.13;;;;;;;;;;5032641;28;20211;-88
2022/06/09 10:26:47;;;;;;;7.20;6.60;;;;;;;;;;5032383;28;20260;-88
2022/06/09 10:29:18;;;;;;;8.30;7.53;;;;;;;;;;5032712;28;20194;-88
2022/06/09 10:31:49;;;;;;;8.73;7.83;;;;;;;;;;5032635;28;20632;-88
2022/06/09 10:34:24;;;;;;;7.43;6.93;;;;;;;;;;5032683;28;20194;-88
2022/06/09 10:37:02;;;;;;;7.30;6.80;;;;;;;;;;5032702;28;20209;-90
2022/06/09 10:39:37;;;;;;;7.73;7.13;;;;;;;;;;5032444;28;20198;-90
2022/06/09 10:42:24;;;;;;;8.17;7.57;;;;;;;;;;5032532;28;20186;-88
2022/06/09 10:44:57;;;;;;;7.57;6.97;;;;;;;;;;5032384;28;20210;-89
2022/06/09 10:56:03;;;;;;;7.60;7.00;;;;;;;;;;5032482;28;20260;-89
2022/06/09 10:58:33;;;;;;;9.13;7.20;;;;;;;;;;5033045;28;20611;-88
2022/06/09 11:01:01;;;;;;;6.97;6.33;;;;;;;;;;5032650;28;20538;-88
2022/06/09 11:03:32;;;;;;;7.53;7.00;;;;;;;;;;5031841;28;20209;-88
2022/06/09 11:06:16;;;;;;;7.60;7.00;;;;;;;;;;5032170;28;20214;-88
2022/06/09 11:08:57;;;;;;;10.40;6.93;;;;;;;;;;5032348;28;20183;-88
2022/06/09 11:11:33;;;;;;;7.93;7.07;;;;;;;;;;5031972;28;20671;-88
2022/06/09 11:14:07;;;;;;;7.90;7.20;;;;;;;;;;5032221;28;20183;-88
2022/06/09 11:16:40;;;;;;;7.70;7.00;;;;;;;;;;5031702;28;20218;-89
2022/06/09 11:19:41;;;;;;;9.43;8.03;;;;;;;;;;5032377;28;20191;-88
2022/06/09 11:22:15;;;;;;;8.90;8.07;;;;;;;;;;5018211;28;20203;-88
2022/06/09 11:24:51;;;;;;;8.93;8.27;;;;;;;;;;5033785;28;20221;-89
2022/06/09 11:27:26;;;;;;;8.33;7.70;;;;;;;;;;5036018;28;20291;-88
2022/06/09 11:30:04;;;;;;;8.37;7.77;;;;;;;;;;5035857;28;20240;-88
2022/06/09 11:32:35;;;;;;;9.00;7.97;;;;;;;;;;5035458;28;20637;-87
2022/06/09 11:35:11;;;;;;;7.60;7.00;;;;;;;;;;5035481;28;20633;-88
2022/06/09 11:37:50;;;;;;;8.47;7.50;;;;;;;;;;5034878;28;20677;-87
2022/06/09 11:40:32;;;;;;;8.80;8.20;;;;;;;;;;5035076;28;20258;-87
2022/06/09 11:43:13;;;;;;;9.27;8.23;;;;;;;;;;5034960;28;20183;-87
2022/06/09 11:45:44;;;;;;;8.97;8.10;;;;;;;;;;5034805;28;20210;-88
2022/06/09 11:48:16;;;;;;;5.97;5.57;;;;;;;;;;5034959;28;20187;-87
2022/06/09 11:50:44;;;;;;;5.70;4.07;;;;;;;;;;5034838;28;20186;-87
2022/06/09 11:53:17;;;;;;;3.87;3.47;;;;;;;;;;5035025;28;20710;-87
2022/06/09 11:56:01;;;;;;;4.13;3.40;;;;;;;;;;5034747;28;20183;-87
2022/06/09 11:58:48;;;;;;;4.57;3.00;;;;;;;;;;5034666;28;20198;-87
2022/06/09 12:01:42;;;;;;;4.90;3.60;;;;;;;;;;5034939;28;20183;-87
2022/06/09 12:04:18;;;;;;;5.17;2.90;;;;;;;;;;5034420;28;20211;-88
2022/06/09 12:07:02;;;;;;;3.67;2.40;;;;;;;;;;5034949;28;20182;-87
2022/06/09 12:09:37;;;;;;;4.50;2.83;;;;;;;;;;5034696;28;20182;-88
2022/06/09 12:12:27;;;;;;;3.00;2.80;;;;;;;;;;5034369;28;20234;-88
2022/06/09 12:15:11;;;;;;;8.50;3.03;;;;;;;;;;5034176;28;20187;-87
2022/06/09 12:17:38;;;;;;;2.37;2.27;;;;;;;;;;5034412;28;20226;-87
2022/06/09 12:20:25;;;;;;;6.37;2.47;;;;;;;;;;5034538;28;20199;-87
2022/06/09 12:23:04;;;;;;;4.10;2.83;;;;;;;;;;5034279;28;20192;-87
2022/06/09 12:25:35;;;;;;;2.77;2.40;;;;;;;;;;5034464;28;20206;-87
2022/06/09 12:28:43;;;;;;;3.83;2.17;;;;;;;;;;5034364;28;20198;-87
2022/06/09 12:31:11;;;;;;;4.83;2.60;;;;;;;;;;5034283;28;20603;-87
2022/06/09 12:33:38;;;;;;;5.13;2.60;;;;;;;;;;5034288;28;20645;-87
2022/06/09 12:36:09;;;;;;;5.50;3.37;;;;;;;;;;5033218;28;20317;-86
2022/06/09 12:38:38;;;;;;;4.20;3.00;;;;;;;;;;5033728;28;20191;-87
2022/06/09 12:41:23;;;;;;;2.97;2.03;;;;;;;;;;5033814;28;20199;-87
2022/06/09 12:43:59;;;;;;;8.23;3.07;;;;;;;;;;5033973;28;20213;-86
2022/06/09 12:46:28;;;;;;;12.63;3.80;;;;;;;;;;5033639;28;20187;-87
2022/06/09 12:48:56;;;;;;;8.60;3.13;;;;;;;;;;5033380;28;20199;-87
2022/06/09 12:51:26;;;;;;;5.87;3.17;;;;;;;;;;5033453;28;20201;-86
2022/06/09 12:54:04;;;;;;;6.10;3.33;;;;;;;;;;5033648;28;20183;-87
2022/06/09 12:56:40;;;;;;;6.40;3.47;;;;;;;;;;5034220;28;20240;-87
2022/06/09 12:59:21;;;;;;;4.50;2.63;;;;;;;;;;5033588;28;20263;-86
2022/06/09 13:01:58;;;;;;;2.60;2.40;;;;;;;;;;5033300;28;20233;-86
2022/06/09 13:04:50;;;;;;;4.60;3.50;;;;;;;;;;5110269;27;20542;-87
2022/06/09 13:07:22;;;;;;;3.70;3.30;;;;;;;;;;5110620;28;20267;-87
2022/06/09 13:10:00;;;;;;;3.70;3.30;;;;;;;;;;5109911;28;20184;-88
2022/06/09 13:15:21;;;;;;;3.50;3.20;;;;;;;;;;5109992;28;20625;-87
2022/06/09 13:17:49;;;;;;;4.53;3.93;;;;;;;;;;5110162;28;20259;-87
2022/06/09 13:20:23;;;;;;;3.10;2.90;;;;;;;;;;5109825;28;20250;-87
2022/06/09 13:22:50;;;;;;;3.33;3.03;;;;;;;;;;5110094;28;20199;-86
2022/06/09 13:25:20;;;;;;;3.80;3.50;;;;;;;;;;5109450;28;20195;-87
2022/06/09 13:27:48;;;;;;;3.47;3.20;;;;;;;;;;5109799;28;20180;-87
2022/06/09 13:30:40;;;;;;;3.13;2.93;;;;;;;;;;5109760;28;20195;-88
2022/06/09 13:33:29;;;;;;;7.60;3.80;;;;;;;;;;5110201;28;20270;-88
2022/06/09 13:36:22;;;;;;;3.40;3.10;;;;;;;;;;5109674;28;20264;-87
2022/06/09 13:38:50;;;;;;;4.00;2.97;;;;;;;;;;5109290;28;20181;-86
2022/06/09 13:41:31;;;;;;;3.50;3.20;;;;;;;;;;5109616;28;20196;-87
2022/06/09 13:44:05;;;;;;;3.40;3.10;;;;;;;;;;5109168;28;20208;-87
2022/06/09 13:46:35;;;;;;;3.73;3.53;;;;;;;;;;5109470;28;20195;-87
2022/06/09 13:49:05;;;;;;;4.77;4.37;;;;;;;;;;5109566;28;20239;-88
2022/06/09 13:51:36;;;;;;;8.43;7.60;;;;;;;;;;5109490;28;20203;-88
2022/06/09 13:54:27;;;;;;;4.50;4.20;;;;;;;;;;5109622;28;20184;-88
2022/06/09 13:56:54;;;;;;;7.03;3.43;;;;;;;;;;5107792;28;20282;-88
2022/06/09 13:59:22;;;;;;;4.13;3.50;;;;;;;;;;5109435;28;20245;-88
2022/06/09 14:01:52;;;;;;;3.53;2.83;;;;;;;;;;5109107;28;20231;-88
2022/06/09 14:04:22;;;;;;;4.90;4.23;;;;;;;;;;5108782;28;20227;-88
2022/06/09 14:06:51;;;;;;;20.50;4.53;;;;;;;;;;5109428;28;20203;-88
2022/06/09 14:09:19;;;;;;;3.63;3.33;;;;;;;;;;5109208;28;20191;-88
2022/06/09 14:11:46;;;;;;;3.60;3.33;;;;;;;;;;5109330;28;20611;-88
2022/06/09 14:14:14;;;;;;;3.50;3.10;;;;;;;;;;5105423;28;20224;-88
2022/06/09 14:16:44;;;;;;;3.27;2.93;;;;;;;;;;5095074;28;20192;-86
2022/06/09 14:19:13;;;;;;;3.50;3.20;;;;;;;;;;5094820;28;20200;-87
2022/06/09 14:21:40;;;;;;;6.77;3.53;;;;;;;;;;5094383;28;20200;-87
2022/06/09 14:24:17;;;;;;;4.73;3.50;;;;;;;;;;5095207;28;20220;-87
2022/06/09 14:26:46;;;;;;;3.23;3.00;;;;;;;;;;5095149;28;20184;-87
2022/06/09 14:29:15;;;;;;;3.47;3.17;;;;;;;;;;5091374;28;20332;-86
2022/06/09 14:31:44;;;;;;;3.30;3.00;;;;;;;;;;5094823;28;20193;-86
2022/06/09 14:34:12;;;;;;;4.23;3.93;;;;;;;;;;5094001;28;20196;-86
2022/06/09 14:36:40;;;;;;;4.20;3.50;;;;;;;;;;5094391;28;20204;-86
2022/06/09 14:39:08;;;;;;;4.57;4.17;;;;;;;;;;5094480;28;20628;-85
2022/06/09 14:41:37;;;;;;;4.10;3.73;;;;;;;;;;5077434;28;20295;-86
2022/06/09 14:44:05;;;;;;;4.00;3.70;;;;;;;;;;5073649;28;20663;-85
2022/06/09 14:46:35;;;;;;;4.13;3.83;;;;;;;;;;5073985;28;20379;-86
2022/06/09 14:49:04;;;;;;;4.33;3.93;;;;;;;;;;5074057;28;20201;-84
2022/06/09 14:51:31;;;;;;;3.40;3.20;;;;;;;;;;5074096;28;20589;-85
2022/06/09 14:53:59;;;;;;;4.20;3.90;;;;;;;;;;5073920;28;20199;-84
2022/06/09 14:56:30;;;;;;;4.20;3.80;;;;;;;;;;5073990;28;20200;-86
2022/06/09 14:58:59;;;;;;;5.67;4.37;;;;;;;;;;5073732;28;20225;-86
2022/06/09 15:01:27;;;;;;;3.80;3.50;;;;;;;;;;5073695;28;20272;-86
2022/06/09 15:03:54;;;;;;;5.03;4.53;;;;;;;;;;5080662;28;20267;-86
2022/06/09 15:06:22;;;;;;;5.37;4.33;;;;;;;;;;5078961;28;20201;-86
2022/06/09 15:08:51;;;;;;;3.67;3.47;;;;;;;;;;5087219;28;20196;-86
2022/06/09 15:11:20;;;;;;;3.57;3.27;;;;;;;;;;5093601;28;20195;-86
2022/06/09 15:13:47;;;;;;;8.50;7.70;;;;;;;;;;5093463;28;20203;-85
2022/06/09 15:16:17;;;;;;;11.00;10.00;;;;;;;;;;5093746;28;20192;-84
2022/06/09 15:18:50;;;;;;;4.40;4.00;;;;;;;;;;5093386;28;20235;-85
2022/06/09 15:21:17;;;;;;;4.00;3.70;;;;;;;;;;5093255;28;20283;-84
2022/06/09 15:23:46;;;;;;;4.33;4.00;;;;;;;;;;5093273;28;20723;-84
2022/06/09 15:26:14;;;;;;;4.30;4.00;;;;;;;;;;5092729;28;20228;-84
2022/06/09 15:28:41;;;;;;;4.80;4.17;;;;;;;;;;5093247;28;20193;-84
2022/06/09 15:31:09;;;;;;;4.17;3.90;;;;;;;;;;5093037;28;20236;-85
2022/06/09 15:33:37;;;;;;;4.40;4.10;;;;;;;;;;5093176;28;20192;-85